sensor_id;sensor_type;location;lat;lon;timestamp;pressure;altitude;pressure_sealevel;temperature;humidity
60375;BME280;70244;48.792;9.172;2023-09-18T04:16:39;97020.91;;;27.78;54.47
60375;BME280;70244;48.792;9.172;2023-09-18T04:19:10;97025.71;;;27.87;54.40
60375;BME280;70244;48.792;9.172;2023-09-18T04:21:14;97015.91;;;27.97;54.21
60375;BME280;70244;48.792;9.172;2023-09-18T04:23:44;97005.47;;;27.80;54.66
60375;BME280;70244;48.792;9.172;2023-09-18T04:26:15;96998.09;;;27.95;54.61
60375;BME280;70244;48.792;9.172;2023-09-18T04:28:45;96991.49;;;27.63;55.39
60375;BME280;70244;48.792;9.172;2023-09-18T04:31:16;96988.46;;;28.00;54.58
60375;BME280;70244;48.792;9.172;2023-09-18T04:33:47;96974.05;;;28.19;54.15
60375;BME280;70244;48.792;9.172;2023-09-18T04:36:17;96958.08;;;28.02;54.65
60375;BME280;70244;48.792;9.172;2023-09-18T04:38:48;96933.22;;;28.07;54.46
60375;BME280;70244;48.792;9.172;2023-09-18T04:41:18;96898.02;;;28.09;54.57
60375;BME280;70244;48.792;9.172;2023-09-18T04:43:49;96907.50;;;27.63;55.67
60375;BME280;70244;48.792;9.172;2023-09-18T04:46:19;96927.88;;;28.26;54.28
60375;BME280;70244;48.792;9.172;2023-09-18T04:48:50;96914.86;;;27.79;55.44
60375;BME280;70244;48.792;9.172;2023-09-18T04:51:21;96900.13;;;27.96;55.11
60375;BME280;70244;48.792;9.172;2023-09-18T04:53:51;96904.06;;;27.98;55.15
60375;BME280;70244;48.792;9.172;2023-09-18T04:56:22;96920.01;;;27.74;56.04
60375;BME280;70244;48.792;9.172;2023-09-18T04:58:52;96930.30;;;28.02;55.38
60375;BME280;70244;48.792;9.172;2023-09-18T05:01:23;96931.45;;;27.23;57.45
60375;BME280;70244;48.792;9.172;2023-09-18T05:03:54;96944.08;;;27.40;57.20
60375;BME280;70244;48.792;9.172;2023-09-18T05:06:24;96939.97;;;27.26;57.67
60375;BME280;70244;48.792;9.172;2023-09-18T05:08:55;96931.06;;;27.41;57.47
60375;BME280;70244;48.792;9.172;2023-09-18T05:11:25;96920.82;;;27.56;57.42
60375;BME280;70244;48.792;9.172;2023-09-18T05:13:56;96911.40;;;27.48;57.68
60375;BME280;70244;48.792;9.172;2023-09-18T05:16:27;96914.22;;;27.22;58.43
60375;BME280;70244;48.792;9.172;2023-09-18T05:18:57;96919.77;;;27.31;58.47
60375;BME280;70244;48.792;9.172;2023-09-18T05:21:28;96930.94;;;27.56;58.18
60375;BME280;70244;48.792;9.172;2023-09-18T05:23:59;96950.51;;;27.74;57.57
60375;BME280;70244;48.792;9.172;2023-09-18T05:26:29;96976.23;;;27.48;58.03
60375;BME280;70244;48.792;9.172;2023-09-18T05:29:05;96985.19;;;28.09;57.52
60375;BME280;70244;48.792;9.172;2023-09-18T05:31:30;96969.41;;;28.46;55.75
60375;BME280;70244;48.792;9.172;2023-09-18T05:34:01;96954.58;;;28.55;55.07
60375;BME280;70244;48.792;9.172;2023-09-18T05:36:31;96950.25;;;28.62;54.78
60375;BME280;70244;48.792;9.172;2023-09-18T05:39:02;96955.77;;;28.70;54.45
60375;BME280;70244;48.792;9.172;2023-09-18T05:41:33;96963.72;;;28.83;53.73
60375;BME280;70244;48.792;9.172;2023-09-18T05:44:04;96963.77;;;28.73;53.96
60375;BME280;70244;48.792;9.172;2023-09-18T05:46:34;96967.62;;;28.88;53.16
60375;BME280;70244;48.792;9.172;2023-09-18T05:49:05;96972.09;;;28.92;53.06
60375;BME280;70244;48.792;9.172;2023-09-18T05:51:35;96969.60;;;28.82;53.56
60375;BME280;70244;48.792;9.172;2023-09-18T05:54:06;96967.63;;;28.78;53.90
60375;BME280;70244;48.792;9.172;2023-09-18T05:56:36;96968.49;;;28.80;53.80
60375;BME280;70244;48.792;9.172;2023-09-18T05:59:07;96961.98;;;28.59;54.46
60375;BME280;70244;48.792;9.172;2023-09-18T06:01:37;96954.53;;;28.63;53.98
60375;BME280;70244;48.792;9.172;2023-09-18T06:04:08;96952.14;;;28.61;54.42
60375;BME280;70244;48.792;9.172;2023-09-18T06:06:39;96956.76;;;28.90;53.42
60375;BME280;70244;48.792;9.172;2023-09-18T06:09:09;96954.12;;;28.80;53.70
60375;BME280;70244;48.792;9.172;2023-09-18T06:11:40;96935.96;;;28.48;54.47
60375;BME280;70244;48.792;9.172;2023-09-18T06:14:10;96930.29;;;28.51;54.18
60375;BME280;70244;48.792;9.172;2023-09-18T06:16:41;96936.45;;;28.63;54.11
60375;BME280;70244;48.792;9.172;2023-09-18T06:19:11;96941.59;;;27.95;55.43
60375;BME280;70244;48.792;9.172;2023-09-18T06:21:42;96937.89;;;28.39;54.48
60375;BME280;70244;48.792;9.172;2023-09-18T06:24:12;96938.73;;;28.58;54.08
60375;BME280;70244;48.792;9.172;2023-09-18T06:26:43;96947.15;;;28.22;54.66
60375;BME280;70244;48.792;9.172;2023-09-18T06:29:13;96950.84;;;28.61;53.84
60375;BME280;70244;48.792;9.172;2023-09-18T06:31:44;96951.21;;;28.44;54.15
60375;BME280;70244;48.792;9.172;2023-09-18T06:34:14;96951.50;;;28.37;54.30
60375;BME280;70244;48.792;9.172;2023-09-18T06:36:45;96953.56;;;28.58;53.96
60375;BME280;70244;48.792;9.172;2023-09-18T06:39:16;96949.27;;;28.15;54.93
60375;BME280;70244;48.792;9.172;2023-09-18T06:41:46;96950.30;;;28.53;54.10
60375;BME280;70244;48.792;9.172;2023-09-18T06:44:17;96944.50;;;28.59;54.43
60375;BME280;70244;48.792;9.172;2023-09-18T06:46:48;96967.45;;;28.49;54.38
60375;BME280;70244;48.792;9.172;2023-09-18T06:49:23;96972.55;;;28.50;54.27
60375;BME280;70244;48.792;9.172;2023-09-18T06:51:49;96971.16;;;28.42;54.78
60375;BME280;70244;48.792;9.172;2023-09-18T06:54:19;96968.44;;;28.64;54.53
60375;BME280;70244;48.792;9.172;2023-09-18T06:56:50;96973.91;;;28.62;54.40
60375;BME280;70244;48.792;9.172;2023-09-18T06:59:20;96970.15;;;28.68;54.16
60375;BME280;70244;48.792;9.172;2023-09-18T07:01:51;96970.87;;;28.89;53.71
60375;BME280;70244;48.792;9.172;2023-09-18T07:04:22;96970.25;;;28.91;54.13
60375;BME280;70244;48.792;9.172;2023-09-18T07:06:52;96968.22;;;29.21;53.27
60375;BME280;70244;48.792;9.172;2023-09-18T07:09:23;96964.62;;;29.19;53.44
60375;BME280;70244;48.792;9.172;2023-09-18T07:11:53;96968.31;;;29.06;53.63
60375;BME280;70244;48.792;9.172;2023-09-18T07:14:24;96965.38;;;29.16;53.67
60375;BME280;70244;48.792;9.172;2023-09-18T07:16:54;96964.72;;;29.02;54.06
60375;BME280;70244;48.792;9.172;2023-09-18T07:19:25;96956.09;;;29.14;53.69
60375;BME280;70244;48.792;9.172;2023-09-18T07:21:56;96949.45;;;28.98;53.94
60375;BME280;70244;48.792;9.172;2023-09-18T07:24:26;96943.38;;;29.19;53.36
60375;BME280;70244;48.792;9.172;2023-09-18T07:26:56;96950.35;;;28.89;54.15
60375;BME280;70244;48.792;9.172;2023-09-18T07:29:27;96952.73;;;29.03;53.59
60375;BME280;70244;48.792;9.172;2023-09-18T07:31:57;96952.06;;;28.66;54.06
60375;BME280;70244;48.792;9.172;2023-09-18T07:34:28;96954.24;;;28.48;54.25
60375;BME280;70244;48.792;9.172;2023-09-18T07:36:59;96958.43;;;28.60;53.40
60375;BME280;70244;48.792;9.172;2023-09-18T07:39:29;96965.19;;;28.37;53.48
60375;BME280;70244;48.792;9.172;2023-09-18T07:42:00;96968.39;;;28.51;53.02
60375;BME280;70244;48.792;9.172;2023-09-18T07:44:30;96985.37;;;28.58;52.78
60375;BME280;70244;48.792;9.172;2023-09-18T07:47:01;96996.12;;;28.81;52.22
60375;BME280;70244;48.792;9.172;2023-09-18T07:49:32;97008.68;;;28.55;52.85
60375;BME280;70244;48.792;9.172;2023-09-18T07:52:02;97014.30;;;28.82;52.18
60375;BME280;70244;48.792;9.172;2023-09-18T07:54:33;97017.85;;;28.71;52.45
60375;BME280;70244;48.792;9.172;2023-09-18T07:57:04;97015.33;;;28.62;52.46
60375;BME280;70244;48.792;9.172;2023-09-18T07:59:34;97026.59;;;28.36;53.05
60375;BME280;70244;48.792;9.172;2023-09-18T08:02:05;97023.68;;;27.95;53.76
60375;BME280;70244;48.792;9.172;2023-09-18T08:04:35;97027.91;;;28.44;52.57
60375;BME280;70244;48.792;9.172;2023-09-18T08:07:06;97028.08;;;28.33;52.75
60375;BME280;70244;48.792;9.172;2023-09-18T08:09:36;97037.51;;;28.72;51.94
60375;BME280;70244;48.792;9.172;2023-09-18T08:12:08;97052.43;;;28.59;52.48
60375;BME280;70244;48.792;9.172;2023-09-18T08:14:38;97051.71;;;28.56;52.84
60375;BME280;70244;48.792;9.172;2023-09-18T08:17:08;97054.37;;;28.64;52.48
60375;BME280;70244;48.792;9.172;2023-09-18T08:19:39;97061.53;;;28.78;52.21
60375;BME280;70244;48.792;9.172;2023-09-18T08:22:09;97066.20;;;28.58;52.53
60375;BME280;70244;48.792;9.172;2023-09-18T08:24:40;97073.67;;;28.67;52.70
60375;BME280;70244;48.792;9.172;2023-09-18T08:27:10;97088.29;;;28.75;52.79
60375;BME280;70244;48.792;9.172;2023-09-18T08:29:41;97109.58;;;28.68;53.02
60375;BME280;70244;48.792;9.172;2023-09-18T08:32:12;97117.42;;;28.90;52.32
60375;BME280;70244;48.792;9.172;2023-09-18T08:34:43;97108.60;;;28.56;52.77
60375;BME280;70244;48.792;9.172;2023-09-18T08:37:13;97103.02;;;28.29;53.58
60375;BME280;70244;48.792;9.172;2023-09-18T08:39:43;97101.42;;;27.79;54.81
60375;BME280;70244;48.792;9.172;2023-09-18T08:42:15;97106.39;;;28.21;53.84
60375;BME280;70244;48.792;9.172;2023-09-18T08:44:47;97107.80;;;28.64;53.47
60375;BME280;70244;48.792;9.172;2023-09-18T08:47:15;97105.81;;;28.55;53.89
60375;BME280;70244;48.792;9.172;2023-09-18T08:49:48;97106.14;;;28.53;53.99
60375;BME280;70244;48.792;9.172;2023-09-18T08:52:17;97106.26;;;28.26;54.85
60375;BME280;70244;48.792;9.172;2023-09-18T08:54:47;97105.34;;;28.34;54.71
60375;BME280;70244;48.792;9.172;2023-09-18T08:57:18;97099.67;;;28.66;54.00
60375;BME280;70244;48.792;9.172;2023-09-18T08:59:50;97099.93;;;28.40;54.62
60375;BME280;70244;48.792;9.172;2023-09-18T09:02:19;97094.45;;;28.51;54.28
60375;BME280;70244;48.792;9.172;2023-09-18T09:04:50;97108.33;;;28.66;53.93
60375;BME280;70244;48.792;9.172;2023-09-18T09:07:20;97112.65;;;28.66;54.02
60375;BME280;70244;48.792;9.172;2023-09-18T09:09:51;97120.09;;;28.27;54.87
60375;BME280;70244;48.792;9.172;2023-09-18T09:15:01;97127.59;;;28.54;54.36
60375;BME280;70244;48.792;9.172;2023-09-18T09:17:23;97127.86;;;28.13;55.39
60375;BME280;70244;48.792;9.172;2023-09-18T09:22:24;97114.69;;;28.27;55.18
60375;BME280;70244;48.792;9.172;2023-09-18T09:24:54;97113.83;;;28.52;54.53
60375;BME280;70244;48.792;9.172;2023-09-18T09:27:25;97116.14;;;28.67;53.96
60375;BME280;70244;48.792;9.172;2023-09-18T09:29:59;97113.34;;;28.70;54.00
60375;BME280;70244;48.792;9.172;2023-09-18T09:32:31;97107.69;;;28.67;54.32
60375;BME280;70244;48.792;9.172;2023-09-18T09:34:57;97126.50;;;28.53;54.75
60375;BME280;70244;48.792;9.172;2023-09-18T09:37:29;97129.60;;;28.47;55.11
60375;BME280;70244;48.792;9.172;2023-09-18T09:40:03;97125.28;;;28.53;54.90
60375;BME280;70244;48.792;9.172;2023-09-18T09:42:38;97110.99;;;28.09;56.16
60375;BME280;70244;48.792;9.172;2023-09-18T09:45:02;97115.66;;;28.24;55.90
60375;BME280;70244;48.792;9.172;2023-09-18T09:47:33;97109.64;;;28.28;55.67
60375;BME280;70244;48.792;9.172;2023-09-18T09:50:07;97110.29;;;28.15;56.12
60375;BME280;70244;48.792;9.172;2023-09-18T09:52:33;97098.60;;;28.25;55.67
60375;BME280;70244;48.792;9.172;2023-09-18T09:55:02;97099.84;;;28.44;55.40
60375;BME280;70244;48.792;9.172;2023-09-18T10:00:04;97097.60;;;28.72;54.62
60375;BME280;70244;48.792;9.172;2023-09-18T10:02:34;97105.14;;;28.76;54.34
60375;BME280;70244;48.792;9.172;2023-09-18T10:05:05;97104.82;;;28.69;54.39
60375;BME280;70244;48.792;9.172;2023-09-18T10:07:35;97104.92;;;28.61;54.58
60375;BME280;70244;48.792;9.172;2023-09-18T10:10:06;97107.86;;;28.70;54.44
60375;BME280;70244;48.792;9.172;2023-09-18T10:12:37;97106.75;;;28.85;54.16
60375;BME280;70244;48.792;9.172;2023-09-18T10:15:08;97113.37;;;28.78;54.30
60375;BME280;70244;48.792;9.172;2023-09-18T10:17:43;97116.37;;;28.78;54.23
60375;BME280;70244;48.792;9.172;2023-09-18T10:20:08;97118.47;;;28.70;54.35
60375;BME280;70244;48.792;9.172;2023-09-18T10:22:40;97147.86;;;28.79;54.41
60375;BME280;70244;48.792;9.172;2023-09-18T10:25:13;97179.28;;;28.87;54.16
60375;BME280;70244;48.792;9.172;2023-09-18T10:27:41;97167.60;;;28.81;54.19
60375;BME280;70244;48.792;9.172;2023-09-18T10:30:12;97178.92;;;28.80;54.43
60375;BME280;70244;48.792;9.172;2023-09-18T10:32:41;97176.94;;;28.71;54.42
60375;BME280;70244;48.792;9.172;2023-09-18T10:35:12;97176.00;;;28.69;54.48
60375;BME280;70244;48.792;9.172;2023-09-18T10:37:42;97176.92;;;28.72;54.31
60375;BME280;70244;48.792;9.172;2023-09-18T10:40:13;97171.50;;;28.83;54.59
60375;BME280;70244;48.792;9.172;2023-09-18T10:42:46;97164.77;;;28.87;54.29
60375;BME280;70244;48.792;9.172;2023-09-18T10:45:19;97183.90;;;28.63;54.73
60375;BME280;70244;48.792;9.172;2023-09-18T10:47:46;97177.61;;;28.73;54.59
60375;BME280;70244;48.792;9.172;2023-09-18T10:50:24;97164.71;;;28.71;54.75
60375;BME280;70244;48.792;9.172;2023-09-18T10:52:46;97154.28;;;28.50;55.30
60375;BME280;70244;48.792;9.172;2023-09-18T10:55:17;97144.66;;;28.71;54.83
60375;BME280;70244;48.792;9.172;2023-09-18T10:57:51;97134.70;;;28.75;55.01
60375;BME280;70244;48.792;9.172;2023-09-18T11:00:26;97133.52;;;28.86;55.20
60375;BME280;70244;48.792;9.172;2023-09-18T11:02:50;97126.56;;;28.79;55.03
60375;BME280;70244;48.792;9.172;2023-09-18T11:07:50;97115.66;;;28.84;54.85
60375;BME280;70244;48.792;9.172;2023-09-18T11:10:25;97114.54;;;28.79;55.09
60375;BME280;70244;48.792;9.172;2023-09-18T11:12:51;97115.62;;;28.71;55.09
60375;BME280;70244;48.792;9.172;2023-09-18T11:15:26;97130.04;;;28.50;55.76
60375;BME280;70244;48.792;9.172;2023-09-18T11:17:58;97136.09;;;28.51;55.70
60375;BME280;70244;48.792;9.172;2023-09-18T11:20:24;97124.62;;;28.74;55.29
60375;BME280;70244;48.792;9.172;2023-09-18T11:22:57;97142.67;;;28.57;55.94
60375;BME280;70244;48.792;9.172;2023-09-18T11:25:30;97145.85;;;28.67;55.60
60375;BME280;70244;48.792;9.172;2023-09-18T11:27:55;97135.57;;;28.59;55.74
60375;BME280;70244;48.792;9.172;2023-09-18T11:30:25;97132.18;;;28.77;55.32
60375;BME280;70244;48.792;9.172;2023-09-18T11:32:56;97097.18;;;28.58;55.42
60375;BME280;70244;48.792;9.172;2023-09-18T11:35:26;97098.85;;;28.78;55.03
60375;BME280;70244;48.792;9.172;2023-09-18T11:38:03;97113.82;;;28.58;55.91
60375;BME280;70244;48.792;9.172;2023-09-18T11:40:29;97121.33;;;28.65;55.63
60375;BME280;70244;48.792;9.172;2023-09-18T11:45:29;97152.02;;;28.81;54.95
60375;BME280;70244;48.792;9.172;2023-09-18T11:47:59;97149.21;;;28.69;55.10
60375;BME280;70244;48.792;9.172;2023-09-18T11:50:30;97136.72;;;28.83;54.64
60375;BME280;70244;48.792;9.172;2023-09-18T11:53:01;97141.25;;;28.77;54.65
60375;BME280;70244;48.792;9.172;2023-09-18T11:55:32;97144.56;;;28.82;54.50
60375;BME280;70244;48.792;9.172;2023-09-18T11:58:03;97142.70;;;28.91;54.11
60375;BME280;70244;48.792;9.172;2023-09-18T12:00:38;97151.10;;;28.92;54.05
60375;BME280;70244;48.792;9.172;2023-09-18T12:05:34;97149.33;;;28.86;53.92
60375;BME280;70244;48.792;9.172;2023-09-18T12:08:04;97156.81;;;28.87;53.81
60375;BME280;70244;48.792;9.172;2023-09-18T12:10:35;97166.56;;;28.89;53.94
60375;BME280;70244;48.792;9.172;2023-09-18T12:13:06;97167.33;;;28.83;54.20
60375;BME280;70244;48.792;9.172;2023-09-18T12:15:37;97159.61;;;28.81;54.17
60375;BME280;70244;48.792;9.172;2023-09-18T12:18:08;97141.24;;;28.79;54.13
60375;BME280;70244;48.792;9.172;2023-09-18T12:20:37;97114.00;;;28.67;54.34
60375;BME280;70244;48.792;9.172;2023-09-18T12:23:08;97124.11;;;28.77;54.38
60375;BME280;70244;48.792;9.172;2023-09-18T12:25:39;97124.63;;;28.85;54.08
60375;BME280;70244;48.792;9.172;2023-09-18T12:28:09;97130.03;;;28.80;54.06
60375;BME280;70244;48.792;9.172;2023-09-18T12:30:40;97128.11;;;28.84;54.04
60375;BME280;70244;48.792;9.172;2023-09-18T12:33:10;97119.87;;;28.77;54.17
60375;BME280;70244;48.792;9.172;2023-09-18T12:35:41;97117.24;;;28.72;54.30
60375;BME280;70244;48.792;9.172;2023-09-18T12:38:16;97112.96;;;28.79;54.24
60375;BME280;70244;48.792;9.172;2023-09-18T12:40:42;97114.83;;;28.85;54.00
60375;BME280;70244;48.792;9.172;2023-09-18T12:43:13;97116.31;;;28.80;54.32
60375;BME280;70244;48.792;9.172;2023-09-18T12:45:44;97110.03;;;28.62;54.89
60375;BME280;70244;48.792;9.172;2023-09-18T12:48:14;97121.23;;;28.75;54.30
60375;BME280;70244;48.792;9.172;2023-09-18T12:50:45;97132.34;;;28.95;54.01
60375;BME280;70244;48.792;9.172;2023-09-18T12:53:15;97136.84;;;29.01;53.66
60375;BME280;70244;48.792;9.172;2023-09-18T12:55:46;97133.11;;;29.04;53.57
60375;BME280;70244;48.792;9.172;2023-09-18T12:58:19;97119.50;;;29.03;53.76
60375;BME280;70244;48.792;9.172;2023-09-18T13:00:48;97124.68;;;29.08;53.59
60375;BME280;70244;48.792;9.172;2023-09-18T13:03:18;97137.66;;;29.06;53.63
60375;BME280;70244;48.792;9.172;2023-09-18T13:05:48;97116.99;;;29.13;53.44
60375;BME280;70244;48.792;9.172;2023-09-18T13:08:21;97124.27;;;29.22;53.21
60375;BME280;70244;48.792;9.172;2023-09-18T13:10:50;97119.16;;;29.17;53.38
60375;BME280;70244;48.792;9.172;2023-09-18T13:13:21;97097.51;;;29.03;53.96
60375;BME280;70244;48.792;9.172;2023-09-18T13:15:51;97096.72;;;29.19;54.08
60375;BME280;70244;48.792;9.172;2023-09-18T13:18:21;97096.55;;;28.96;54.09
60375;BME280;70244;48.792;9.172;2023-09-18T13:20:52;97096.46;;;29.10;53.93
60375;BME280;70244;48.792;9.172;2023-09-18T13:23:28;97088.56;;;29.05;54.26
60375;BME280;70244;48.792;9.172;2023-09-18T13:25:58;97094.16;;;28.79;54.67
60375;BME280;70244;48.792;9.172;2023-09-18T13:28:24;97093.45;;;28.87;54.65
60375;BME280;70244;48.792;9.172;2023-09-18T13:30:54;97094.40;;;28.79;54.87
60375;BME280;70244;48.792;9.172;2023-09-18T13:33:25;97100.38;;;28.75;54.47
60375;BME280;70244;48.792;9.172;2023-09-18T13:35:56;97090.87;;;28.88;54.08
60375;BME280;70244;48.792;9.172;2023-09-18T13:38:26;97085.73;;;28.81;54.39
60375;BME280;70244;48.792;9.172;2023-09-18T13:43:28;97093.76;;;29.13;53.13
60375;BME280;70244;48.792;9.172;2023-09-18T13:45:58;97090.37;;;29.22;52.54
60375;BME280;70244;48.792;9.172;2023-09-18T13:48:29;97097.55;;;28.91;53.06
60375;BME280;70244;48.792;9.172;2023-09-18T13:50:59;97105.31;;;28.46;54.26
60375;BME280;70244;48.792;9.172;2023-09-18T13:53:30;97104.40;;;28.94;53.13
60375;BME280;70244;48.792;9.172;2023-09-18T13:56:02;97096.25;;;29.06;52.95
60375;BME280;70244;48.792;9.172;2023-09-18T13:58:31;97086.57;;;29.02;53.05
60375;BME280;70244;48.792;9.172;2023-09-18T14:01:02;97080.35;;;29.11;52.81
60375;BME280;70244;48.792;9.172;2023-09-18T14:03:32;97080.41;;;29.11;52.76
60375;BME280;70244;48.792;9.172;2023-09-18T14:06:03;97088.40;;;29.14;52.66
60375;BME280;70244;48.792;9.172;2023-09-18T14:08:34;97092.42;;;29.21;52.35
60375;BME280;70244;48.792;9.172;2023-09-18T14:11:04;97086.90;;;29.13;52.35
60375;BME280;70244;48.792;9.172;2023-09-18T14:13:35;97064.59;;;29.13;52.23
60375;BME280;70244;48.792;9.172;2023-09-18T14:16:06;97055.91;;;29.12;52.31
60375;BME280;70244;48.792;9.172;2023-09-18T14:18:36;97059.32;;;29.10;52.23
60375;BME280;70244;48.792;9.172;2023-09-18T14:21:07;97061.37;;;28.98;52.35
60375;BME280;70244;48.792;9.172;2023-09-18T14:23:37;97064.45;;;29.17;51.75
60375;BME280;70244;48.792;9.172;2023-09-18T14:26:08;97061.80;;;29.06;51.92
60375;BME280;70244;48.792;9.172;2023-09-18T14:28:39;97061.30;;;28.85;51.97
60375;BME280;70244;48.792;9.172;2023-09-18T14:31:09;97052.52;;;28.84;51.94
60375;BME280;70244;48.792;9.172;2023-09-18T14:33:40;97054.85;;;28.83;52.07
60375;BME280;70244;48.792;9.172;2023-09-18T14:36:10;97060.27;;;28.90;51.88
60375;BME280;70244;48.792;9.172;2023-09-18T14:38:41;97064.96;;;28.89;51.94
60375;BME280;70244;48.792;9.172;2023-09-18T14:41:12;97058.14;;;29.14;51.20
60375;BME280;70244;48.792;9.172;2023-09-18T14:43:42;97049.32;;;29.00;51.56
60375;BME280;70244;48.792;9.172;2023-09-18T14:46:13;97062.60;;;29.04;51.61
60375;BME280;70244;48.792;9.172;2023-09-18T14:48:44;97049.27;;;28.97;51.74
60375;BME280;70244;48.792;9.172;2023-09-18T14:51:14;97046.28;;;29.11;51.43
60375;BME280;70244;48.792;9.172;2023-09-18T14:53:45;97047.10;;;29.17;51.22
60375;BME280;70244;48.792;9.172;2023-09-18T14:56:15;97038.06;;;29.05;51.41
60375;BME280;70244;48.792;9.172;2023-09-18T14:58:46;97033.01;;;29.05;51.30
60375;BME280;70244;48.792;9.172;2023-09-18T15:01:17;97030.22;;;29.18;51.00
60375;BME280;70244;48.792;9.172;2023-09-18T15:03:47;97016.09;;;29.22;50.61
60375;BME280;70244;48.792;9.172;2023-09-18T15:06:18;97012.40;;;28.91;51.33
60375;BME280;70244;48.792;9.172;2023-09-18T15:08:48;97016.27;;;28.62;51.53
60375;BME280;70244;48.792;9.172;2023-09-18T15:11:19;97006.91;;;28.72;51.55
60375;BME280;70244;48.792;9.172;2023-09-18T15:13:49;97000.68;;;28.63;51.78
60375;BME280;70244;48.792;9.172;2023-09-18T15:16:20;96995.24;;;28.71;51.68
60375;BME280;70244;48.792;9.172;2023-09-18T15:18:51;96995.25;;;28.88;51.39
60375;BME280;70244;48.792;9.172;2023-09-18T15:21:21;96997.40;;;28.93;51.19
60375;BME280;70244;48.792;9.172;2023-09-18T15:23:52;96995.15;;;28.83;51.70
60375;BME280;70244;48.792;9.172;2023-09-18T15:26:23;97000.23;;;28.83;51.74
60375;BME280;70244;48.792;9.172;2023-09-18T15:28:53;96998.18;;;28.77;51.83
60375;BME280;70244;48.792;9.172;2023-09-18T15:31:24;96989.95;;;28.83;51.60
60375;BME280;70244;48.792;9.172;2023-09-18T15:33:54;96991.00;;;28.53;52.24
60375;BME280;70244;48.792;9.172;2023-09-18T15:36:25;96995.85;;;28.94;51.46
60375;BME280;70244;48.792;9.172;2023-09-18T15:38:56;96989.27;;;28.92;51.46
60375;BME280;70244;48.792;9.172;2023-09-18T15:41:26;96983.53;;;29.07;50.85
60375;BME280;70244;48.792;9.172;2023-09-18T15:43:57;96981.62;;;28.75;51.33
60375;BME280;70244;48.792;9.172;2023-09-18T15:46:27;96980.96;;;29.09;50.72
60375;BME280;70244;48.792;9.172;2023-09-18T15:48:58;96972.58;;;29.05;50.69
60375;BME280;70244;48.792;9.172;2023-09-18T15:51:29;96972.81;;;29.17;50.51
60375;BME280;70244;48.792;9.172;2023-09-18T15:53:59;96979.30;;;28.93;50.90
60375;BME280;70244;48.792;9.172;2023-09-18T15:56:30;96981.98;;;28.88;51.12
60375;BME280;70244;48.792;9.172;2023-09-18T15:59:01;96976.58;;;28.82;51.18
60375;BME280;70244;48.792;9.172;2023-09-18T16:01:31;96969.08;;;28.86;51.02
60375;BME280;70244;48.792;9.172;2023-09-18T16:04:02;96971.51;;;28.96;50.81
60375;BME280;70244;48.792;9.172;2023-09-18T16:06:32;96972.50;;;28.91;50.87
60375;BME280;70244;48.792;9.172;2023-09-18T16:09:03;96971.74;;;28.91;50.59
60375;BME280;70244;48.792;9.172;2023-09-18T16:11:34;96967.30;;;27.42;54.09
60375;BME280;70244;48.792;9.172;2023-09-18T16:14:05;96971.94;;;28.39;51.68
60375;BME280;70244;48.792;9.172;2023-09-18T16:16:35;96967.72;;;27.78;52.81
60375;BME280;70244;48.792;9.172;2023-09-18T16:19:06;96962.30;;;28.37;51.60
60375;BME280;70244;48.792;9.172;2023-09-18T16:24:07;96966.74;;;28.71;50.70
60375;BME280;70244;48.792;9.172;2023-09-18T16:26:37;96967.56;;;28.17;51.83
60375;BME280;70244;48.792;9.172;2023-09-18T16:29:08;96970.23;;;28.19;51.87
60375;BME280;70244;48.792;9.172;2023-09-18T16:31:39;96969.19;;;28.65;50.69
60375;BME280;70244;48.792;9.172;2023-09-18T16:34:09;96973.23;;;28.77;50.40
60375;BME280;70244;48.792;9.172;2023-09-18T16:36:40;96976.35;;;28.62;50.70
60375;BME280;70244;48.792;9.172;2023-09-18T16:39:11;96972.62;;;28.34;51.30
60375;BME280;70244;48.792;9.172;2023-09-18T16:41:41;96971.69;;;28.62;50.74
60375;BME280;70244;48.792;9.172;2023-09-18T16:44:12;96967.06;;;28.53;50.91
60375;BME280;70244;48.792;9.172;2023-09-18T16:46:42;96962.19;;;28.62;50.71
60375;BME280;70244;48.792;9.172;2023-09-18T16:49:13;96959.32;;;28.61;50.72
60375;BME280;70244;48.792;9.172;2023-09-18T16:51:44;96962.37;;;28.36;51.18
60375;BME280;70244;48.792;9.172;2023-09-18T16:54:14;96965.94;;;28.44;51.15
60375;BME280;70244;48.792;9.172;2023-09-18T16:56:45;96961.31;;;28.36;51.62
60375;BME280;70244;48.792;9.172;2023-09-18T16:59:15;96966.89;;;28.11;52.21
60375;BME280;70244;48.792;9.172;2023-09-18T17:01:46;96964.93;;;28.46;51.47
60375;BME280;70244;48.792;9.172;2023-09-18T17:04:16;96967.03;;;28.63;51.06
60375;BME280;70244;48.792;9.172;2023-09-18T17:06:47;96969.38;;;28.04;52.47
60375;BME280;70244;48.792;9.172;2023-09-18T17:09:17;96973.40;;;28.41;52.00
60375;BME280;70244;48.792;9.172;2023-09-18T17:11:48;96974.52;;;28.37;52.02
60375;BME280;70244;48.792;9.172;2023-09-18T17:14:19;96976.11;;;28.49;51.62
60375;BME280;70244;48.792;9.172;2023-09-18T17:16:49;96976.81;;;28.14;52.38
60375;BME280;70244;48.792;9.172;2023-09-18T17:19:20;96982.71;;;28.66;51.02
60375;BME280;70244;48.792;9.172;2023-09-18T17:21:50;96981.36;;;28.70;50.87
60375;BME280;70244;48.792;9.172;2023-09-18T17:24:21;96986.89;;;28.74;50.73
60375;BME280;70244;48.792;9.172;2023-09-18T17:26:52;96988.64;;;28.69;50.68
60375;BME280;70244;48.792;9.172;2023-09-18T17:29:22;96988.86;;;28.71;50.63
60375;BME280;70244;48.792;9.172;2023-09-18T17:31:53;96997.06;;;28.74;50.55
60375;BME280;70244;48.792;9.172;2023-09-18T17:34:23;96992.68;;;28.61;50.71
60375;BME280;70244;48.792;9.172;2023-09-18T17:36:54;96997.28;;;28.44;51.04
60375;BME280;70244;48.792;9.172;2023-09-18T17:39:24;97000.22;;;28.22;51.54
60375;BME280;70244;48.792;9.172;2023-09-18T17:41:55;97003.33;;;28.37;51.26
60375;BME280;70244;48.792;9.172;2023-09-18T17:44:26;97007.27;;;28.10;51.72
60375;BME280;70244;48.792;9.172;2023-09-18T17:46:56;97014.41;;;28.47;51.08
60375;BME280;70244;48.792;9.172;2023-09-18T17:49:27;97015.78;;;28.43;51.10
60375;BME280;70244;48.792;9.172;2023-09-18T17:51:57;97011.49;;;28.46;51.24